Time;durP1;ratioP1;P1;durP2;ratioP2;P2;SDS_P1;SDS_P2;PMS_P1;PMS_P2;Temp;Humidity;BMP_temperature;BMP_pressure;BME280_temperature;BME280_humidity;BME280_pressure;Samples;Min_cycle;Max_cycle;Signal;HPM_P1;HPM_P2
2022/04/07 00:00:26;;;;;;;5.35;2.55;;;;;;;12.71;36.76;92993.41;4929750;28;20034;-75
2022/04/07 00:02:52;;;;;;;3.53;2.08;;;;;;;12.72;36.98;92984.31;4931096;28;20035;-75
2022/04/07 00:05:17;;;;;;;5.13;2.30;;;;;;;12.64;36.88;92969.25;4923820;28;20153;-74
2022/04/07 00:07:43;;;;;;;5.10;2.38;;;;;;;12.81;36.52;92976.88;4927394;28;20217;-75
2022/04/07 00:10:10;;;;;;;4.07;2.35;;;;;;;12.65;36.36;92952.16;4929927;28;20090;-74
2022/04/07 00:12:37;;;;;;;4.22;2.60;;;;;;;12.78;36.72;92976.81;4929223;28;20330;-75
2022/04/07 00:15:03;;;;;;;3.58;2.42;;;;;;;12.69;36.55;92962.88;4932535;29;20085;-74
2022/04/07 00:17:30;;;;;;;5.43;2.63;;;;;;;12.78;36.52;92966.16;4921145;28;20070;-73
2022/04/07 00:19:56;;;;;;;7.50;2.60;;;;;;;12.57;36.54;92930.94;4927650;28;20071;-74
2022/04/07 00:22:21;;;;;;;3.05;2.38;;;;;;;12.67;37.04;92944.56;4925447;28;20122;-74
2022/04/07 00:24:46;;;;;;;2.92;2.10;;;;;;;12.59;36.96;92950.84;4921879;28;20039;-74
2022/04/07 00:27:12;;;;;;;2.65;1.92;;;;;;;12.38;37.45;92935.09;4926421;29;20410;-74
2022/04/07 00:29:37;;;;;;;4.18;2.78;;;;;;;12.42;37.60;92916.50;4922671;28;20127;-74
2022/04/07 00:32:05;;;;;;;2.97;2.42;;;;;;;12.62;37.22;92942.16;4928010;28;20039;-74
2022/04/07 00:34:32;;;;;;;4.03;2.08;;;;;;;12.49;37.18;92924.69;4926341;28;20565;-74
2022/04/07 00:36:57;;;;;;;4.63;2.60;;;;;;;12.41;37.55;92920.31;4921801;28;20190;-74
2022/04/07 00:39:24;;;;;;;4.55;2.28;;;;;;;12.43;37.85;92940.16;4929552;29;20023;-74
2022/04/07 00:41:50;;;;;;;4.80;2.40;;;;;;;12.36;37.81;92933.91;4921035;28;20067;-74
2022/04/07 00:44:16;;;;;;;4.95;3.13;;;;;;;12.47;37.79;92940.22;4920256;28;20046;-74
2022/04/07 00:46:42;;;;;;;4.05;2.13;;;;;;;12.35;37.46;92911.78;4926609;28;20131;-74
2022/04/07 00:49:09;;;;;;;5.40;2.85;;;;;;;12.47;37.53;92916.22;4928740;28;20098;-74
2022/04/07 00:51:38;;;;;;;2.35;1.85;;;;;;;12.58;37.54;92927.97;4923400;29;20033;-74
2022/04/07 00:54:04;;;;;;;5.25;2.33;;;;;;;12.30;37.62;92897.94;4920152;29;20127;-74
2022/04/07 00:56:30;;;;;;;4.57;2.88;;;;;;;12.46;37.43;92906.72;4945894;28;20047;-74
2022/04/07 00:58:57;;;;;;;2.92;2.33;;;;;;;12.31;37.67;92894.16;4919062;28;20529;-74
2022/04/07 01:01:24;;;;;;;3.85;2.15;;;;;;;12.21;37.54;92881.34;4931424;28;20031;-74
2022/04/07 01:03:50;;;;;;;6.38;2.72;;;;;;;12.32;38.08;92903.72;4924515;28;20226;-74
2022/04/07 01:06:18;;;;;;;6.68;2.53;;;;;;;11.98;38.00;92889.16;4926311;28;20133;-74
2022/04/07 01:08:43;;;;;;;2.95;2.10;;;;;;;12.07;38.41;92907.66;4921082;28;20692;-74
2022/04/07 01:11:09;;;;;;;3.33;2.55;;;;;;;11.90;38.37;92872.25;4924571;28;20505;-75
2022/04/07 01:13:51;;;;;;;4.20;2.45;;;;;;;11.83;38.52;92864.06;4922452;28;20469;-74
2022/04/07 01:16:25;;;;;;;11.07;3.70;;;;;;;11.99;39.07;92870.19;4922139;28;20071;-74
2022/04/07 01:18:51;;;;;;;4.38;2.70;;;;;;;11.93;38.93;92860.88;4912200;28;21267;-74
2022/04/07 01:21:17;;;;;;;5.18;2.90;;;;;;;12.06;39.10;92879.47;4926052;29;20027;-74
2022/04/07 01:24:04;;;;;;;3.13;2.38;;;;;;;12.16;39.23;92879.72;4923525;28;20170;-75
2022/04/07 01:26:31;;;;;;;5.13;2.60;;;;;;;11.87;38.95;92848.19;4918224;28;20040;-74
2022/04/07 01:28:59;;;;;;;3.97;2.92;;;;;;;11.96;39.07;92840.78;4917271;28;20393;-74
2022/04/07 01:31:24;;;;;;;3.10;2.17;;;;;;;11.99;38.95;92840.09;4925767;28;20699;-73
2022/04/07 01:33:50;;;;;;;5.18;2.40;;;;;;;12.10;38.92;92832.34;4925447;28;20097;-74
2022/04/07 01:36:17;;;;;;;5.60;2.42;;;;;;;12.13;38.55;92829.75;4925573;29;22147;-74
2022/04/07 01:38:44;;;;;;;5.55;3.00;;;;;;;11.96;38.95;92806.16;4928512;28;20477;-74
2022/04/07 01:41:10;;;;;;;4.70;2.03;;;;;;;12.13;38.72;92840.41;4927412;28;20043;-74
2022/04/07 01:43:38;;;;;;;7.68;2.72;;;;;;;11.99;38.96;92798.22;4924215;28;22215;-73
2022/04/07 01:46:03;;;;;;;6.28;2.50;;;;;;;12.17;38.83;92813.88;4920758;28;20333;-74
2022/04/07 01:48:30;;;;;;;3.95;2.10;;;;;;;11.83;38.71;92773.50;4927846;28;20037;-75
2022/04/07 01:50:56;;;;;;;4.93;2.40;;;;;;;11.68;39.00;92771.63;4930258;28;20042;-75
2022/04/07 01:53:23;;;;;;;3.10;2.30;;;;;;;12.02;39.07;92802.13;4922480;28;20083;-75
2022/04/07 01:55:49;;;;;;;3.42;2.55;;;;;;;11.85;39.02;92767.81;4942938;28;20040;-74
2022/04/07 01:58:16;;;;;;;3.78;2.85;;;;;;;11.91;39.33;92785.88;4930846;28;20769;-73
2022/04/07 02:00:41;;;;;;;4.13;2.67;;;;;;;11.95;39.37;92792.06;4926391;28;20473;-74
2022/04/07 02:03:09;;;;;;;7.72;3.38;;;;;;;11.97;39.04;92789.06;4944206;28;20015;-74
2022/04/07 02:05:36;;;;;;;6.57;3.70;;;;;;;12.13;38.90;92786.34;4922485;28;20406;-74
2022/04/07 02:08:01;;;;;;;5.65;3.60;;;;;;;11.82;39.54;92787.16;4926146;28;20040;-75
2022/04/07 02:10:28;;;;;;;9.15;3.70;;;;;;;11.79;39.88;92780.63;4924669;28;20061;-74
2022/04/07 02:12:54;;;;;;;5.35;3.53;;;;;;;11.75;40.13;92782.44;4916701;28;20023;-74
2022/04/07 02:15:19;;;;;;;3.60;2.40;;;;;;;11.72;39.89;92782.34;4928005;29;20054;-74
2022/04/07 02:17:44;;;;;;;7.00;2.60;;;;;;;11.72;40.07;92756.50;4935153;28;20098;-74
2022/04/07 02:20:10;;;;;;;5.18;3.13;;;;;;;11.70;40.07;92748.06;4924218;28;20047;-75
2022/04/07 02:22:35;;;;;;;7.43;3.17;;;;;;;11.83;39.89;92762.84;4924672;28;20045;-74
2022/04/07 02:25:02;;;;;;;3.40;2.88;;;;;;;11.81;39.81;92764.31;4923634;28;20036;-74
2022/04/07 02:27:34;;;;;;;6.68;2.40;;;;;;;11.74;39.73;92746.25;4926079;29;20024;-74
2022/04/07 02:29:59;;;;;;;3.25;2.55;;;;;;;11.65;39.97;92724.38;4924481;28;20044;-74
2022/04/07 02:32:25;;;;;;;5.00;2.78;;;;;;;11.62;40.11;92711.75;4926987;28;20092;-74
2022/04/07 02:34:50;;;;;;;4.25;2.78;;;;;;;11.69;39.93;92756.41;4924065;28;20442;-74
2022/04/07 02:37:16;;;;;;;3.65;2.28;;;;;;;11.46;40.65;92729.59;4923609;28;20059;-74
2022/04/07 02:39:41;;;;;;;3.40;2.83;;;;;;;11.44;40.52;92719.28;4918243;28;20153;-74
2022/04/07 02:42:07;;;;;;;4.68;2.95;;;;;;;11.55;40.40;92714.25;4924366;29;20038;-74
2022/04/07 02:44:32;;;;;;;4.75;3.00;;;;;;;11.70;40.67;92726.00;4930668;28;20039;-74
2022/04/07 02:46:57;;;;;;;8.77;3.22;;;;;;;11.69;39.99;92735.09;4920812;28;20027;-74
2022/04/07 02:49:24;;;;;;;6.45;2.85;;;;;;;11.55;40.54;92716.91;4927549;28;20036;-74
2022/04/07 02:51:50;;;;;;;4.13;3.08;;;;;;;11.46;40.70;92679.78;4914664;28;20035;-74
2022/04/07 02:54:15;;;;;;;4.82;2.83;;;;;;;11.60;40.11;92692.66;4929489;28;20038;-75
2022/04/07 02:56:41;;;;;;;6.22;3.53;;;;;;;11.75;40.02;92705.19;4923215;28;20098;-75
2022/04/07 02:59:06;;;;;;;5.90;2.95;;;;;;;11.70;40.58;92667.41;4921126;28;20419;-73
2022/04/07 03:01:32;;;;;;;5.07;3.45;;;;;;;11.57;40.03;92650.78;4934858;29;20495;-75
2022/04/07 03:03:57;;;;;;;5.10;3.05;;;;;;;11.84;40.04;92649.06;4919903;28;20551;-75
2022/04/07 03:06:23;;;;;;;4.47;2.60;;;;;;;12.12;39.85;92689.66;4927043;28;20024;-74
2022/04/07 03:08:50;;;;;;;3.38;2.58;;;;;;;12.02;39.62;92672.31;4925516;28;20046;-74
2022/04/07 03:11:15;;;;;;;4.95;3.72;;;;;;;11.99;39.83;92658.91;4924894;28;20496;-73
2022/04/07 03:13:41;;;;;;;5.15;2.83;;;;;;;11.40;40.71;92665.19;4931661;28;20035;-74
2022/04/07 03:16:07;;;;;;;4.50;2.95;;;;;;;11.21;41.23;92645.72;4923444;28;20576;-75
2022/04/07 03:18:33;;;;;;;6.15;3.38;;;;;;;11.59;41.49;92662.59;4930045;29;20028;-73
2022/04/07 03:21:00;;;;;;;6.25;2.92;;;;;;;11.57;41.46;92664.09;4938682;28;20402;-75
2022/04/07 03:23:25;;;;;;;9.60;4.55;;;;;;;11.21;41.55;92675.75;4947225;28;20051;-73
2022/04/07 03:25:51;;;;;;;5.93;3.45;;;;;;;10.83;41.96;92662.25;4922813;28;20053;-74
2022/04/07 03:28:16;;;;;;;7.82;3.28;;;;;;;10.78;42.42;92657.19;4930448;28;20043;-74
2022/04/07 03:30:42;;;;;;;8.38;4.20;;;;;;;10.74;42.49;92657.13;4928330;28;20059;-74
2022/04/07 03:33:08;;;;;;;5.50;4.07;;;;;;;10.41;42.08;92624.72;4926878;29;20051;-74
2022/04/07 03:35:34;;;;;;;3.78;2.80;;;;;;;10.55;42.43;92655.13;4935643;29;20042;-73
2022/04/07 03:37:59;;;;;;;4.47;3.25;;;;;;;10.52;42.32;92617.78;4926205;28;20070;-73
2022/04/07 03:40:25;;;;;;;4.82;3.22;;;;;;;10.41;41.80;92582.22;4932154;28;20091;-74
2022/04/07 03:42:52;;;;;;;4.57;2.80;;;;;;;10.91;42.60;92632.84;4923084;28;20246;-74
2022/04/07 03:45:18;;;;;;;5.18;3.25;;;;;;;10.96;42.37;92613.97;4930810;28;20015;-74
2022/04/07 03:47:44;;;;;;;4.20;2.42;;;;;;;10.92;42.65;92602.47;4923562;28;20130;-75
2022/04/07 03:50:10;;;;;;;4.80;2.67;;;;;;;10.99;43.22;92613.28;4943087;28;20040;-74
2022/04/07 03:52:36;;;;;;;11.82;3.58;;;;;;;10.93;42.64;92596.03;4924847;28;20036;-73
2022/04/07 03:55:06;;;;;;;4.75;3.13;;;;;;;10.89;43.45;92573.13;4926021;28;20063;-73
2022/04/07 03:57:31;;;;;;;5.50;2.90;;;;;;;11.12;42.97;92582.03;4930548;29;20591;-74
2022/04/07 03:59:57;;;;;;;3.53;2.80;;;;;;;11.30;43.06;92595.72;4928274;28;20039;-75
2022/04/07 04:02:22;;;;;;;3.03;2.40;;;;;;;11.25;42.27;92569.41;4927744;28;20059;-73
2022/04/07 04:04:47;;;;;;;4.82;3.05;;;;;;;11.08;42.34;92562.56;4927753;28;20035;-74
2022/04/07 04:07:13;;;;;;;6.57;3.38;;;;;;;10.97;42.43;92574.84;4929708;28;20490;-74
2022/04/07 04:09:38;;;;;;;4.72;3.25;;;;;;;10.90;43.05;92591.41;4929292;28;20039;-73
2022/04/07 04:12:04;;;;;;;9.82;3.90;;;;;;;10.67;42.96;92585.13;4926757;29;20463;-73
2022/04/07 04:14:30;;;;;;;6.03;3.42;;;;;;;10.81;43.07;92624.63;4930902;28;20042;-74
2022/04/07 04:16:55;;;;;;;4.95;3.10;;;;;;;10.76;43.36;92633.59;4928866;28;20032;-75
2022/04/07 04:19:21;;;;;;;5.72;3.35;;;;;;;10.65;43.70;92624.59;4928724;28;20397;-74
2022/04/07 04:21:46;;;;;;;11.05;3.67;;;;;;;10.63;43.26;92595.69;4929652;28;20036;-74
2022/04/07 04:24:12;;;;;;;6.38;3.08;;;;;;;10.88;43.06;92633.53;4929167;28;20123;-75
2022/04/07 04:26:37;;;;;;;5.90;3.20;;;;;;;10.65;43.35;92600.66;4925726;28;20066;-73
2022/04/07 04:29:03;;;;;;;7.43;3.40;;;;;;;10.51;43.74;92626.91;4922646;28;20039;-74
2022/04/07 04:31:28;;;;;;;6.13;3.83;;;;;;;10.54;43.67;92634.19;4929241;28;20086;-74
2022/04/07 04:33:55;;;;;;;5.82;3.85;;;;;;;10.51;44.11;92598.44;4928386;28;20674;-74
2022/04/07 04:36:21;;;;;;;6.72;3.20;;;;;;;10.83;43.79;92636.44;4927618;29;20632;-74
2022/04/07 04:38:47;;;;;;;8.00;3.55;;;;;;;10.93;43.38;92622.63;4926581;28;20040;-75
2022/04/07 04:41:12;;;;;;;7.75;3.38;;;;;;;11.05;43.28;92606.56;4922746;28;20070;-74
2022/04/07 04:43:37;;;;;;;6.60;3.90;;;;;;;11.38;43.22;92624.84;4929220;28;20488;-74
2022/04/07 04:46:03;;;;;;;8.50;4.75;;;;;;;11.15;42.96;92584.75;4921354;28;20043;-73
2022/04/07 04:48:29;;;;;;;8.57;3.58;;;;;;;11.33;42.58;92600.38;4922213;29;20483;-74
2022/04/07 04:50:57;;;;;;;5.50;3.00;;;;;;;11.36;42.76;92594.34;4929982;28;20055;-74
2022/04/07 04:53:24;;;;;;;6.95;3.13;;;;;;;11.45;42.62;92614.34;4923143;28;20549;-74
2022/04/07 04:55:49;;;;;;;3.88;2.88;;;;;;;11.53;42.09;92610.00;4927650;28;20086;-74
2022/04/07 04:58:15;;;;;;;4.10;2.67;;;;;;;11.36;42.15;92607.66;4914938;28;20051;-72
2022/04/07 05:00:42;;;;;;;3.90;2.97;;;;;;;11.58;41.78;92620.38;4930559;28;20276;-75
2022/04/07 05:03:07;;;;;;;7.13;3.55;;;;;;;11.55;41.64;92608.50;4921479;29;20023;-75
2022/04/07 05:05:38;;;;;;;8.48;3.28;;;;;;;11.65;41.61;92617.84;4932222;29;20237;-73
2022/04/07 05:08:04;;;;;;;4.45;3.05;;;;;;;11.83;41.35;92603.00;4926537;28;20107;-74
2022/04/07 05:10:29;;;;;;;5.57;2.92;;;;;;;11.96;40.87;92609.75;4922629;28;20042;-72
2022/04/07 05:12:55;;;;;;;4.25;2.47;;;;;;;11.93;41.81;92610.44;4921341;28;20030;-73
2022/04/07 05:15:20;;;;;;;9.52;3.33;;;;;;;12.06;41.56;92624.41;4930287;29;20027;-74
2022/04/07 05:17:51;;;;;;;5.45;3.05;;;;;;;11.66;42.28;92579.44;4928056;28;20058;-74
2022/04/07 05:20:17;;;;;;;6.97;3.13;;;;;;;11.83;41.66;92605.66;4925878;28;20054;-75
2022/04/07 05:22:43;;;;;;;6.35;3.38;;;;;;;11.82;41.45;92603.38;4927131;28;20047;-74
2022/04/07 05:25:09;;;;;;;4.80;3.08;;;;;;;11.85;41.19;92598.09;4929414;28;20079;-73
2022/04/07 05:27:36;;;;;;;4.40;2.72;;;;;;;11.94;41.13;92604.00;4926476;29;20110;-75
2022/04/07 05:30:15;;;;;;;6.38;3.50;;;;;;;11.79;41.22;92570.19;4921022;28;20046;-74
2022/04/07 05:32:44;;;;;;;6.03;3.38;;;;;;;12.00;41.00;92602.59;4931978;28;20041;-74
2022/04/07 05:35:11;;;;;;;6.22;2.72;;;;;;;11.84;41.19;92571.81;4916144;28;20055;-75
2022/04/07 05:37:37;;;;;;;7.75;4.00;;;;;;;11.99;41.42;92606.38;4930772;28;20048;-75
2022/04/07 05:40:04;;;;;;;9.27;4.68;;;;;;;10.96;43.71;92598.00;4929894;28;20047;-74
2022/04/07 05:42:29;;;;;;;6.85;4.45;;;;;;;10.35;45.35;92588.84;4930420;28;20037;-75
2022/04/07 05:44:55;;;;;;;7.43;4.32;;;;;;;10.26;46.07;92619.00;4926211;28;20035;-74
2022/04/07 05:47:20;;;;;;;8.63;5.18;;;;;;;10.69;45.14;92614.81;4944845;28;20516;-75
2022/04/07 05:49:46;;;;;;;9.55;3.88;;;;;;;10.02;46.27;92592.56;4929090;28;20387;-75
2022/04/07 05:52:11;;;;;;;6.57;4.70;;;;;;;10.03;45.59;92586.09;4922926;28;20044;-72
2022/04/07 05:54:37;;;;;;;7.10;3.97;;;;;;;10.32;44.79;92572.47;4925245;29;20130;-75
2022/04/07 05:57:02;;;;;;;9.02;4.20;;;;;;;10.54;44.79;92571.16;4928592;28;20400;-74
2022/04/07 05:59:29;;;;;;;7.43;3.58;;;;;;;10.15;44.75;92575.44;4926825;28;20728;-75
2022/04/07 06:01:54;;;;;;;6.18;3.72;;;;;;;10.46;44.36;92518.16;4932657;28;20066;-74
2022/04/07 06:04:20;;;;;;;9.10;3.83;;;;;;;10.12;44.44;92557.50;4920499;28;20123;-74
2022/04/07 06:06:46;;;;;;;7.10;4.22;;;;;;;10.17;44.96;92554.59;4926246;28;20186;-75
2022/04/07 06:09:11;;;;;;;6.60;4.35;;;;;;;9.90;44.83;92552.75;4924375;29;20027;-73
2022/04/07 06:11:37;;;;;;;10.90;4.60;;;;;;;9.50;45.66;92538.72;4923542;28;20470;-74
2022/04/07 06:14:03;;;;;;;8.25;4.20;;;;;;;9.55;46.08;92549.88;4927804;28;20115;-74
2022/04/07 06:16:29;;;;;;;5.82;4.15;;;;;;;10.01;45.56;92561.78;4926150;28;20494;-74
2022/04/07 06:18:54;;;;;;;7.82;4.80;;;;;;;9.86;45.88;92554.53;4923994;28;20118;-74
2022/04/07 06:21:23;;;;;;;8.15;4.55;;;;;;;9.57;46.26;92533.63;4925199;28;20035;-74
2022/04/07 06:23:49;;;;;;;9.90;4.78;;;;;;;9.25;46.91;92557.38;4929477;28;20065;-74
2022/04/07 06:26:14;;;;;;;10.18;4.30;;;;;;;9.05;47.99;92555.59;4922583;28;20593;-74
2022/04/07 06:28:40;;;;;;;12.30;4.55;;;;;;;8.91;48.22;92565.75;4922611;28;20194;-74
2022/04/07 06:31:06;;;;;;;7.53;4.13;;;;;;;8.78;48.41;92550.97;4926573;28;20032;-74
2022/04/07 06:33:32;;;;;;;4.95;3.20;;;;;;;8.45;48.84;92537.81;4930963;28;20046;-74
2022/04/07 06:35:57;;;;;;;8.85;4.63;;;;;;;8.53;49.10;92540.38;4925441;28;20357;-74
2022/04/07 06:38:23;;;;;;;8.85;4.10;;;;;;;8.44;49.33;92552.94;4924577;28;20047;-74
2022/04/07 06:40:48;;;;;;;7.30;4.18;;;;;;;8.45;49.30;92554.50;4924270;28;20264;-74
2022/04/07 06:43:13;;;;;;;7.22;3.80;;;;;;;8.42;48.78;92555.13;4929061;28;20441;-74
2022/04/07 06:45:39;;;;;;;9.02;4.13;;;;;;;8.04;49.08;92530.78;4930164;28;20029;-73
2022/04/07 06:48:04;;;;;;;8.43;4.10;;;;;;;7.83;49.33;92530.84;4928904;28;20594;-73
2022/04/07 06:50:31;;;;;;;9.20;3.85;;;;;;;7.86;48.90;92548.72;4930544;28;20525;-74
2022/04/07 06:52:57;;;;;;;10.55;4.70;;;;;;;7.91;49.25;92539.81;4929460;28;20111;-73
2022/04/07 06:55:23;;;;;;;6.13;4.28;;;;;;;7.48;49.44;92495.97;4929729;28;20811;-75
2022/04/07 06:57:52;;;;;;;6.78;3.67;;;;;;;7.99;49.13;92562.78;4934007;28;20034;-75
2022/04/07 07:00:19;;;;;;;8.68;4.50;;;;;;;8.16;48.99;92557.31;4926755;28;20030;-74
2022/04/07 07:02:49;;;;;;;7.65;4.22;;;;;;;8.46;48.16;92555.28;4929003;28;20644;-74
2022/04/07 07:05:14;;;;;;;7.90;5.22;;;;;;;8.46;48.33;92550.72;4927539;28;20035;-74
2022/04/07 07:07:40;;;;;;;8.02;3.80;;;;;;;8.39;48.10;92518.72;4924403;28;20104;-74
2022/04/07 07:10:06;;;;;;;8.25;4.80;;;;;;;8.15;48.41;92539.88;4930441;28;20142;-74
2022/04/07 07:12:31;;;;;;;5.40;3.40;;;;;;;8.11;48.29;92523.09;4931136;28;20042;-75
2022/04/07 07:14:57;;;;;;;5.13;4.10;;;;;;;8.54;48.11;92526.03;4925276;28;20043;-74
2022/04/07 07:17:22;;;;;;;7.47;4.05;;;;;;;8.68;47.28;92543.47;4930549;28;20277;-74
2022/04/07 07:19:47;;;;;;;6.45;4.03;;;;;;;8.93;47.11;92542.34;4919533;28;20074;-75
2022/04/07 07:22:13;;;;;;;6.55;4.65;;;;;;;9.38;46.82;92556.25;4931756;28;20308;-74
2022/04/07 07:24:38;;;;;;;9.00;4.35;;;;;;;9.42;46.06;92533.25;4924443;28;21152;-74
2022/04/07 07:27:03;;;;;;;6.47;4.75;;;;;;;9.52;45.82;92523.25;4931200;29;20444;-74
2022/04/07 07:29:29;;;;;;;10.57;4.80;;;;;;;9.72;45.50;92540.88;4931199;28;20041;-75
2022/04/07 07:31:55;;;;;;;7.85;5.10;;;;;;;9.41;46.15;92531.69;4921003;28;20035;-74
2022/04/07 07:34:20;;;;;;;8.05;4.82;;;;;;;9.23;46.07;92498.56;4925729;28;20533;-74
2022/04/07 07:36:51;;;;;;;6.32;4.10;;;;;;;9.20;46.53;92530.28;4932735;28;20026;-74
2022/04/07 07:39:17;;;;;;;7.88;4.30;;;;;;;9.50;46.11;92522.81;4925108;29;20062;-75
2022/04/07 07:41:42;;;;;;;11.43;5.00;;;;;;;9.57;46.15;92507.88;4923931;28;20153;-74
2022/04/07 07:44:08;;;;;;;8.68;4.68;;;;;;;9.34;46.37;92493.59;4931655;28;20051;-75
2022/04/07 07:46:34;;;;;;;7.90;5.30;;;;;;;9.15;48.05;92501.34;4934001;28;20151;-74
2022/04/07 07:49:00;;;;;;;10.85;4.82;;;;;;;9.71;48.14;92491.53;4945251;28;20191;-74
2022/04/07 07:51:25;;;;;;;9.80;5.18;;;;;;;9.42;48.51;92500.63;4920583;28;20027;-74
2022/04/07 07:53:51;;;;;;;9.27;4.50;;;;;;;9.63;48.80;92474.69;4920154;28;20859;-74
2022/04/07 07:56:16;;;;;;;9.02;4.72;;;;;;;9.43;49.35;92419.91;4931911;28;20058;-74
2022/04/07 07:58:41;;;;;;;9.27;4.57;;;;;;;10.15;48.39;92501.06;4923103;28;20032;-74
2022/04/07 08:01:07;;;;;;;6.75;4.47;;;;;;;10.14;48.21;92477.47;4929999;28;20043;-74
2022/04/07 08:03:32;;;;;;;7.13;4.53;;;;;;;9.97;48.85;92444.06;4930977;29;20031;-75
2022/04/07 08:05:59;;;;;;;7.82;4.28;;;;;;;10.25;47.87;92436.78;4926177;28;20686;-76
2022/04/07 08:08:24;;;;;;;5.53;4.50;;;;;;;10.52;48.71;92475.03;4925208;28;20035;-74
2022/04/07 08:10:50;;;;;;;7.85;5.07;;;;;;;10.27;48.07;92473.63;4940226;28;20042;-74
2022/04/07 08:13:15;;;;;;;8.95;4.88;;;;;;;10.10;47.71;92450.84;4945817;28;20395;-74
2022/04/07 08:15:41;;;;;;;9.00;5.22;;;;;;;9.95;48.54;92470.19;4928309;28;20065;-74
2022/04/07 08:18:08;;;;;;;12.10;5.35;;;;;;;9.51;49.45;92452.72;4925796;29;20019;-74
2022/04/07 08:20:34;;;;;;;13.55;5.85;;;;;;;9.83;49.96;92449.78;4923594;28;20046;-73
2022/04/07 08:22:59;;;;;;;13.23;6.38;;;;;;;9.65;48.58;92445.91;4922920;28;20083;-73
2022/04/07 08:25:24;;;;;;;9.88;4.90;;;;;;;9.68;48.12;92429.28;4927688;28;20127;-73
2022/04/07 08:27:50;;;;;;;8.77;5.82;;;;;;;9.85;48.07;92450.22;4913582;28;20086;-73
2022/04/07 08:30:15;;;;;;;13.35;5.20;;;;;;;9.74;47.94;92448.38;4926940;28;20820;-72
2022/04/07 08:32:41;;;;;;;9.73;4.93;;;;;;;9.77;46.23;92439.75;4918483;28;20040;-72
2022/04/07 08:35:09;;;;;;;10.95;4.57;;;;;;;10.27;46.43;92425.78;4939720;28;20183;-73
2022/04/07 08:37:36;;;;;;;8.55;4.47;;;;;;;10.62;46.92;92436.50;4924647;28;20994;-73
2022/04/07 08:40:05;;;;;;;12.43;5.15;;;;;;;10.63;45.23;92440.72;4917991;28;20461;-73
2022/04/07 08:42:32;;;;;;;7.03;4.75;;;;;;;10.54;44.83;92440.13;4925929;29;20039;-73
2022/04/07 08:44:57;;;;;;;12.63;4.78;;;;;;;10.62;45.12;92442.59;4920964;28;20031;-74
2022/04/07 08:47:24;;;;;;;8.90;4.07;;;;;;;10.60;44.17;92412.16;4925872;28;20574;-72
2022/04/07 08:49:50;;;;;;;8.27;5.55;;;;;;;10.60;44.54;92406.84;4927986;28;20085;-74
2022/04/07 08:52:16;;;;;;;7.25;4.93;;;;;;;10.59;44.91;92400.00;4924885;28;20043;-73
2022/04/07 08:54:45;;;;;;;18.63;7.32;;;;;;;11.18;44.01;92434.31;4920030;28;20033;-73
2022/04/07 08:57:10;;;;;;;6.95;4.15;;;;;;;11.43;42.63;92413.50;4927645;28;20124;-73
2022/04/07 08:59:36;;;;;;;6.40;3.80;;;;;;;11.38;42.13;92400.47;4923386;29;20083;-73
2022/04/07 09:02:03;;;;;;;11.20;5.10;;;;;;;10.90;43.36;92421.19;4928604;28;20040;-72
2022/04/07 09:04:46;;;;;;;8.13;4.63;;;;;;;10.83;44.03;92414.94;4922500;28;20046;-72
2022/04/07 09:07:13;;;;;;;11.50;4.75;;;;;;;10.94;43.45;92403.41;4925234;28;20060;-73
2022/04/07 09:09:38;;;;;;;7.65;4.50;;;;;;;11.49;42.65;92406.78;4936143;28;20027;-75
2022/04/07 09:12:05;;;;;;;19.30;4.88;;;;;;;11.62;41.53;92399.44;4925736;28;20302;-73
2022/04/07 09:14:35;;;;;;;10.25;4.05;;;;;;;11.88;42.13;92418.19;4922756;28;20233;-73
2022/04/07 09:17:01;;;;;;;9.85;4.85;;;;;;;11.87;41.90;92406.75;4925665;28;20059;-73
2022/04/07 09:19:28;;;;;;;9.10;3.65;;;;;;;12.03;41.30;92433.25;4922072;28;20384;-73
2022/04/07 09:22:08;;;;;;;14.18;5.43;;;;;;;12.06;40.44;92418.47;4926864;28;20026;-73
2022/04/07 09:24:35;;;;;;;8.57;4.10;;;;;;;12.11;40.49;92442.94;4926608;28;20566;-72
2022/04/07 09:27:04;;;;;;;7.25;3.80;;;;;;;12.30;40.33;92455.44;4890658;28;20105;-74
2022/04/07 09:29:41;;;;;;;8.35;3.90;;;;;;;12.22;40.33;92453.78;4919845;28;20043;-73
2022/04/07 09:32:20;;;;;;;11.68;4.90;;;;;;;12.31;40.23;92438.31;4940813;28;20051;-73
2022/04/07 09:35:01;;;;;;;6.72;3.88;;;;;;;12.50;39.89;92443.56;4925782;29;20039;-73
2022/04/07 09:37:29;;;;;;;10.63;4.68;;;;;;;12.61;40.36;92444.53;4922579;28;20384;-73
2022/04/07 09:40:09;;;;;;;7.03;3.92;;;;;;;12.80;39.95;92447.09;4888454;28;20131;-73
2022/04/07 09:42:36;;;;;;;5.00;3.80;;;;;;;12.81;40.41;92437.94;4922701;28;20560;-73
2022/04/07 09:45:07;;;;;;;9.73;4.68;;;;;;;12.73;41.46;92436.31;4922030;28;20086;-75
2022/04/07 09:47:43;;;;;;;5.45;3.72;;;;;;;12.69;42.96;92458.75;4925925;28;20130;-74
2022/04/07 09:50:33;;;;;;;9.85;5.47;;;;;;;12.29;45.64;92443.22;4921769;28;20039;-74
2022/04/07 09:53:03;;;;;;;12.18;6.13;;;;;;;12.18;47.67;92452.91;4919761;28;20094;-73
2022/04/07 09:55:35;;;;;;;11.93;6.07;;;;;;;11.84;50.79;92476.69;4927965;28;20044;-73
2022/04/07 09:58:02;;;;;;;13.30;3.70;;;;;;;11.12;51.14;92475.59;4917052;28;20071;-74
2022/04/07 10:00:28;;;;;;;12.23;2.47;;;;;;;10.40;52.06;92464.50;4938404;28;20478;-73
2022/04/07 10:02:55;;;;;;;8.55;3.00;;;;;;;10.37;52.84;92483.03;4920065;29;20125;-73
2022/04/07 10:05:22;;;;;;;7.82;3.38;;;;;;;10.14;53.63;92488.09;4922052;28;20031;-73
2022/04/07 10:07:49;;;;;;;10.10;3.00;;;;;;;9.36;55.25;92500.09;4925102;28;20062;-74
2022/04/07 10:10:14;;;;;;;7.03;3.90;;;;;;;8.87;56.49;92469.44;4923226;28;20126;-73
2022/04/07 10:12:40;;;;;;;7.25;2.92;;;;;;;8.67;58.38;92496.84;4920635;28;20039;-73
2022/04/07 10:15:07;;;;;;;8.40;2.70;;;;;;;8.56;58.79;92480.63;4926605;29;20038;-72
2022/04/07 10:17:35;;;;;;;8.52;2.83;;;;;;;8.25;59.81;92478.53;4918190;28;20461;-73
2022/04/07 10:20:06;;;;;;;8.82;2.78;;;;;;;8.55;60.61;92510.91;4930881;28;20117;-73
2022/04/07 10:22:46;;;;;;;7.10;3.85;;;;;;;8.51;62.19;92505.47;4942897;28;20492;-74
2022/04/07 10:25:13;;;;;;;11.18;3.17;;;;;;;8.40;63.17;92469.94;4897807;28;20048;-74
2022/04/07 10:27:49;;;;;;;12.88;3.35;;;;;;;8.78;63.69;92466.16;4930074;28;20648;-74
2022/04/07 10:30:16;;;;;;;11.73;4.45;;;;;;;9.10;64.60;92482.97;4925957;28;20571;-73
2022/04/07 10:32:42;;;;;;;10.68;4.55;;;;;;;9.30;64.75;92472.25;4937932;28;20053;-73
2022/04/07 10:35:10;;;;;;;11.40;6.57;;;;;;;9.33;65.38;92466.28;4926219;29;20043;-73
2022/04/07 10:37:49;;;;;;;7.85;4.63;;;;;;;9.53;66.15;92469.06;4930133;28;20119;-73
2022/04/07 10:40:36;;;;;;;12.85;6.13;;;;;;;9.65;66.44;92471.66;4946804;28;20054;-73
2022/04/07 10:43:11;;;;;;;12.13;7.30;;;;;;;9.83;66.79;92463.03;4929334;28;20043;-73
2022/04/07 10:45:47;;;;;;;15.10;8.30;;;;;;;9.93;67.08;92461.78;4930592;28;20039;-73
2022/04/07 10:48:16;;;;;;;12.90;8.30;;;;;;;9.68;67.86;92428.53;4926402;28;20052;-73
2022/04/07 10:50:49;;;;;;;13.68;10.00;;;;;;;9.77;68.18;92437.09;4926331;28;20042;-73
2022/04/07 10:53:31;;;;;;;21.73;9.93;;;;;;;9.82;68.93;92434.97;4936507;28;20067;-73
2022/04/07 10:56:01;;;;;;;13.68;8.77;;;;;;;9.63;70.07;92432.22;4948491;28;20151;-73
2022/04/07 10:58:54;;;;;;;13.32;8.00;;;;;;;10.03;69.39;92429.41;4931213;28;20047;-73
2022/04/07 11:01:28;;;;;;;13.52;6.95;;;;;;;10.29;66.74;92424.34;4936120;28;20127;-75
2022/04/07 11:04:19;;;;;;;12.52;7.72;;;;;;;10.23;66.01;92432.91;4930336;28;20395;-73
2022/04/07 11:07:10;;;;;;;11.02;6.70;;;;;;;10.57;64.90;92436.78;4945363;28;20034;-74
2022/04/07 11:09:54;;;;;;;13.45;6.97;;;;;;;10.85;64.55;92428.66;4940258;28;20024;-73
2022/04/07 11:12:37;;;;;;;17.15;8.10;;;;;;;10.70;65.14;92430.25;4930103;29;20154;-75
2022/04/07 11:15:03;;;;;;;12.57;8.23;;;;;;;10.36;66.12;92433.63;4928935;28;20051;-73
2022/04/07 11:17:36;;;;;;;17.48;7.28;;;;;;;10.35;66.71;92435.50;4930344;28;20040;-74
2022/04/07 11:20:15;;;;;;;16.20;8.75;;;;;;;10.17;66.29;92379.25;4932022;28;20099;-74
2022/04/07 11:23:07;;;;;;;13.77;9.20;;;;;;;10.24;67.24;92424.59;4930267;28;20032;-74
2022/04/07 11:25:40;;;;;;;14.23;7.55;;;;;;;10.17;66.61;92429.75;4931451;28;20130;-74
2022/04/07 11:28:14;;;;;;;12.10;7.10;;;;;;;10.77;65.32;92429.63;4931657;28;20443;-73
2022/04/07 11:30:42;;;;;;;16.23;7.20;;;;;;;11.06;63.64;92421.88;4949362;28;20106;-73
2022/04/07 11:33:20;;;;;;;10.57;6.38;;;;;;;11.40;63.30;92446.91;4919464;28;20438;-73
2022/04/07 11:35:58;;;;;;;14.80;7.38;;;;;;;11.59;62.17;92444.25;4940142;28;20043;-75